Skandi Inspector — C6QW5 — position and weather

sailwx.info

Track history (hours):
 
Tides and Currents Weather Stations Pressure Air Temp Water Temp Dewpoint Dewpoint Depression Visibility Wind Speed Wind Dir Waves Ship Positions

Skandi Inspector

Last reported at 2015-Sep-15 13:33 UTC. Time now 2016-Apr-29 01:54 UTC.
Position N 59°16' E 004°58'.
Warning: this ship's position is months out of date.

Length 81 m; draft 4.3 m.

Type: Other ship. MMSI: 308941000.

Date/timePositionNaut miles runAvg speedWind from/ knotsBaromVisibWave heightAir tempDewpointWater temp
2015-Sep-15 13:33N 59°16' E 004°58'6 6.0
2015-Sep-15 12:33N 59°10' E 004°57'6 5.7
2015-Sep-15 11:33N 59°05' E 004°59'6 6.1
2015-Sep-15 10:33N 58°59' E 005°04'6 6.3
2015-Sep-15 09:33N 58°53' E 005°08'6 5.8
2015-Sep-15 08:33N 58°48' E 005°13'19 6.0
2015-Sep-15 05:30N 58°30' E 005°21'7 7.5
2015-Sep-15 04:33N 58°23' E 005°24'424 8.5
2015-Sep-13 02:33N 51°32' E 002°16'1110.9
2015-Sep-13 01:33N 51°24' E 002°04'1111.4
2015-Sep-13 00:33N 51°16' E 001°52'1212.0
2015-Sep-12 23:34N 51°06' E 001°41'1312.2
2015-Sep-12 22:32N 50°56' E 001°28'  
2015-Sep-08 22:25N 40°40' W 010°46'66 8.3
2015-Sep-08 14:28N 39°37' W 011°14'8 8.4
2015-Sep-08 13:30N 39°30' W 011°17'8 8.4
2015-Sep-08 12:34N 39°22' W 011°20'8 8.2
2015-Sep-08 11:32N 39°14' W 011°23'7 7.3
2015-Sep-08 10:34N 39°07' W 011°26'6 6.0
2015-Sep-08 09:33N 39°02' W 011°29'6 6.3
2015-Sep-08 08:33N 38°56' W 011°31'6 6.1
2015-Sep-08 07:33N 38°50' W 011°34'8 7.2
2015-Sep-08 06:29N 38°43' W 011°37'8 8.3
2015-Sep-08 05:33N 38°35' W 011°40'8 8.2
2015-Sep-08 04:33N 38°28' W 011°44'8 8.3
2015-Sep-08 03:33N 38°20' W 011°47'8 8.1
2015-Sep-08 02:31N 38°12' W 011°50'8 8.1
2015-Sep-08 01:33N 38°04' W 011°53'8 8.1
2015-Sep-08 00:34N 37°57' W 011°57'26 8.0
2015-Sep-07 21:16N 37°32' W 012°07'6 8.0
2015-Sep-07 20:33N 37°26' W 012°09'8 7.7
2015-Sep-07 19:34N 37°19' W 012°12'7 6.8
2015-Sep-07 18:33N 37°13' W 012°15'7 6.7
2015-Sep-07 17:33N 37°06' W 012°18'10 6.9
2015-Sep-07 16:03N 36°56' W 012°22'3 6.9
2015-Sep-07 15:34N 36°53' W 012°23'7 7.0
2015-Sep-07 14:34N 36°47' W 012°26'7 7.0
2015-Sep-07 13:33N 36°40' W 012°29'  
Track history (hours):
 
Tides and Currents Weather Stations Pressure Air Temp Water Temp Dewpoint Dewpoint Depression Visibility Wind Speed Wind Dir Waves Ship Positions

Skandi Inspector

Last reported at 2015-Sep-15 13:33 UTC. Time now 2016-Apr-29 01:54 UTC.
Position N 59°16' E 004°58'.
Warning: this ship's position is months out of date.

Length 81 m; draft 4.3 m.

Type: Other ship. MMSI: 308941000.

Date/timePositionNaut miles runAvg speedWind from/ knotsBaromVisibWave heightAir tempDewpointWater temp
2015-Sep-15 13:33N 59°16' E 004°58'6 6.0
2015-Sep-15 12:33N 59°10' E 004°57'6 5.7
2015-Sep-15 11:33N 59°05' E 004°59'6 6.1
2015-Sep-15 10:33N 58°59' E 005°04'6 6.3
2015-Sep-15 09:33N 58°53' E 005°08'6 5.8
2015-Sep-15 08:33N 58°48' E 005°13'19 6.0
2015-Sep-15 05:30N 58°30' E 005°21'7 7.5
2015-Sep-15 04:33N 58°23' E 005°24'424 8.5
2015-Sep-13 02:33N 51°32' E 002°16'1110.9
2015-Sep-13 01:33N 51°24' E 002°04'1111.4
2015-Sep-13 00:33N 51°16' E 001°52'1212.0
2015-Sep-12 23:34N 51°06' E 001°41'1312.2
2015-Sep-12 22:32N 50°56' E 001°28'  
2015-Sep-08 22:25N 40°40' W 010°46'66 8.3
2015-Sep-08 14:28N 39°37' W 011°14'8 8.4
2015-Sep-08 13:30N 39°30' W 011°17'8 8.4
2015-Sep-08 12:34N 39°22' W 011°20'8 8.2
2015-Sep-08 11:32N 39°14' W 011°23'7 7.3
2015-Sep-08 10:34N 39°07' W 011°26'6 6.0
2015-Sep-08 09:33N 39°02' W 011°29'6 6.3
2015-Sep-08 08:33N 38°56' W 011°31'6 6.1
2015-Sep-08 07:33N 38°50' W 011°34'8 7.2
2015-Sep-08 06:29N 38°43' W 011°37'8 8.3
2015-Sep-08 05:33N 38°35' W 011°40'8 8.2
2015-Sep-08 04:33N 38°28' W 011°44'8 8.3
2015-Sep-08 03:33N 38°20' W 011°47'8 8.1
2015-Sep-08 02:31N 38°12' W 011°50'8 8.1
2015-Sep-08 01:33N 38°04' W 011°53'8 8.1
2015-Sep-08 00:34N 37°57' W 011°57'26 8.0
2015-Sep-07 21:16N 37°32' W 012°07'6 8.0
2015-Sep-07 20:33N 37°26' W 012°09'8 7.7
2015-Sep-07 19:34N 37°19' W 012°12'7 6.8
2015-Sep-07 18:33N 37°13' W 012°15'7 6.7
2015-Sep-07 17:33N 37°06' W 012°18'10 6.9
2015-Sep-07 16:03N 36°56' W 012°22'3 6.9
2015-Sep-07 15:34N 36°53' W 012°23'7 7.0
2015-Sep-07 14:34N 36°47' W 012°26'7 7.0
2015-Sep-07 13:33N 36°40' W 012°29'  

Dump ship's entire track history